sensor_id;sensor_type;location;lat;lon;timestamp;P1;durP1;ratioP1;P2;durP2;ratioP2
18013;SDS011;9132;47.946;10.394;2022-12-07T00:00:11;14.17;;;10.43;;
18013;SDS011;9132;47.946;10.394;2022-12-07T00:02:37;14.30;;;10.57;;
18013;SDS011;9132;47.946;10.394;2022-12-07T00:05:04;12.77;;;10.53;;
18013;SDS011;9132;47.946;10.394;2022-12-07T00:07:33;13.97;;;10.77;;
18013;SDS011;9132;47.946;10.394;2022-12-07T00:09:59;15.63;;;12.00;;
18013;SDS011;9132;47.946;10.394;2022-12-07T00:12:25;14.57;;;11.50;;
18013;SDS011;9132;47.946;10.394;2022-12-07T00:14:52;15.17;;;11.50;;
18013;SDS011;9132;47.946;10.394;2022-12-07T00:17:18;14.10;;;11.27;;
18013;SDS011;9132;47.946;10.394;2022-12-07T00:19:44;17.10;;;12.00;;
18013;SDS011;9132;47.946;10.394;2022-12-07T00:22:11;17.53;;;11.27;;
18013;SDS011;9132;47.946;10.394;2022-12-07T00:24:38;14.87;;;11.50;;
18013;SDS011;9132;47.946;10.394;2022-12-07T00:27:05;13.87;;;10.97;;
18013;SDS011;9132;47.946;10.394;2022-12-07T00:29:31;12.83;;;10.77;;
18013;SDS011;9132;47.946;10.394;2022-12-07T00:31:57;16.67;;;12.03;;
18013;SDS011;9132;47.946;10.394;2022-12-07T00:34:24;15.43;;;11.57;;
18013;SDS011;9132;47.946;10.394;2022-12-07T00:36:50;15.37;;;12.00;;
18013;SDS011;9132;47.946;10.394;2022-12-07T00:39:16;16.73;;;12.27;;
18013;SDS011;9132;47.946;10.394;2022-12-07T00:41:44;14.30;;;11.60;;
18013;SDS011;9132;47.946;10.394;2022-12-07T00:44:10;15.23;;;11.60;;
18013;SDS011;9132;47.946;10.394;2022-12-07T00:46:37;15.23;;;11.83;;
18013;SDS011;9132;47.946;10.394;2022-12-07T00:49:03;16.70;;;11.63;;
18013;SDS011;9132;47.946;10.394;2022-12-07T00:51:30;12.97;;;10.67;;
18013;SDS011;9132;47.946;10.394;2022-12-07T00:53:56;14.70;;;10.67;;
18013;SDS011;9132;47.946;10.394;2022-12-07T00:56:23;16.27;;;12.30;;
18013;SDS011;9132;47.946;10.394;2022-12-07T00:58:52;13.13;;;11.63;;
18013;SDS011;9132;47.946;10.394;2022-12-07T01:01:19;18.80;;;12.87;;
18013;SDS011;9132;47.946;10.394;2022-12-07T01:03:45;16.93;;;12.57;;
18013;SDS011;9132;47.946;10.394;2022-12-07T01:06:13;16.97;;;12.77;;
18013;SDS011;9132;47.946;10.394;2022-12-07T01:08:40;17.37;;;13.00;;
18013;SDS011;9132;47.946;10.394;2022-12-07T01:11:07;19.43;;;12.60;;
18013;SDS011;9132;47.946;10.394;2022-12-07T01:13:34;14.40;;;11.47;;
18013;SDS011;9132;47.946;10.394;2022-12-07T01:16:02;15.10;;;11.40;;
18013;SDS011;9132;47.946;10.394;2022-12-07T01:18:30;17.10;;;12.90;;
18013;SDS011;9132;47.946;10.394;2022-12-07T01:20:57;15.80;;;12.53;;
18013;SDS011;9132;47.946;10.394;2022-12-07T01:23:23;15.23;;;12.10;;
18013;SDS011;9132;47.946;10.394;2022-12-07T01:25:53;17.33;;;12.83;;
18013;SDS011;9132;47.946;10.394;2022-12-07T01:28:19;16.00;;;12.20;;
18013;SDS011;9132;47.946;10.394;2022-12-07T01:30:53;17.33;;;12.50;;
18013;SDS011;9132;47.946;10.394;2022-12-07T01:33:21;18.33;;;13.77;;
18013;SDS011;9132;47.946;10.394;2022-12-07T01:35:48;16.10;;;12.90;;
18013;SDS011;9132;47.946;10.394;2022-12-07T01:38:14;17.13;;;12.60;;
18013;SDS011;9132;47.946;10.394;2022-12-07T01:40:40;15.07;;;11.83;;
18013;SDS011;9132;47.946;10.394;2022-12-07T01:43:09;15.33;;;12.47;;
18013;SDS011;9132;47.946;10.394;2022-12-07T01:45:38;17.30;;;12.40;;
18013;SDS011;9132;47.946;10.394;2022-12-07T01:48:05;14.93;;;12.10;;
18013;SDS011;9132;47.946;10.394;2022-12-07T01:50:33;17.07;;;12.47;;
18013;SDS011;9132;47.946;10.394;2022-12-07T01:53:01;15.67;;;11.77;;
18013;SDS011;9132;47.946;10.394;2022-12-07T01:55:29;16.03;;;12.10;;
18013;SDS011;9132;47.946;10.394;2022-12-07T01:57:56;16.63;;;12.53;;
18013;SDS011;9132;47.946;10.394;2022-12-07T02:00:22;15.73;;;12.07;;
18013;SDS011;9132;47.946;10.394;2022-12-07T02:02:51;15.83;;;10.73;;
18013;SDS011;9132;47.946;10.394;2022-12-07T02:05:19;16.87;;;9.93;;
18013;SDS011;9132;47.946;10.394;2022-12-07T02:07:47;14.23;;;9.47;;
18013;SDS011;9132;47.946;10.394;2022-12-07T02:10:15;16.10;;;10.47;;
18013;SDS011;9132;47.946;10.394;2022-12-07T02:12:41;15.23;;;10.33;;
18013;SDS011;9132;47.946;10.394;2022-12-07T02:15:09;15.13;;;9.90;;
18013;SDS011;9132;47.946;10.394;2022-12-07T02:17:37;15.63;;;10.40;;
18013;SDS011;9132;47.946;10.394;2022-12-07T02:20:17;12.80;;;10.00;;
18013;SDS011;9132;47.946;10.394;2022-12-07T02:25:37;13.70;;;10.27;;
18013;SDS011;9132;47.946;10.394;2022-12-07T02:28:09;16.13;;;10.20;;
18013;SDS011;9132;47.946;10.394;2022-12-07T02:30:40;15.70;;;11.10;;
18013;SDS011;9132;47.946;10.394;2022-12-07T02:33:10;13.80;;;10.63;;
18013;SDS011;9132;47.946;10.394;2022-12-07T02:35:39;14.53;;;10.20;;
18013;SDS011;9132;47.946;10.394;2022-12-07T02:38:08;13.07;;;9.50;;
18013;SDS011;9132;47.946;10.394;2022-12-07T02:40:35;14.00;;;10.20;;
18013;SDS011;9132;47.946;10.394;2022-12-07T02:43:04;12.67;;;9.20;;
18013;SDS011;9132;47.946;10.394;2022-12-07T02:45:30;13.33;;;9.40;;
18013;SDS011;9132;47.946;10.394;2022-12-07T02:47:59;13.10;;;9.90;;
18013;SDS011;9132;47.946;10.394;2022-12-07T02:50:26;12.60;;;9.77;;
18013;SDS011;9132;47.946;10.394;2022-12-07T02:52:52;15.30;;;9.43;;
18013;SDS011;9132;47.946;10.394;2022-12-07T02:55:19;13.50;;;9.37;;
18013;SDS011;9132;47.946;10.394;2022-12-07T02:57:54;15.07;;;9.70;;
18013;SDS011;9132;47.946;10.394;2022-12-07T03:00:22;15.90;;;10.27;;
18013;SDS011;9132;47.946;10.394;2022-12-07T03:02:53;15.03;;;10.00;;
18013;SDS011;9132;47.946;10.394;2022-12-07T03:05:31;15.53;;;9.93;;
18013;SDS011;9132;47.946;10.394;2022-12-07T03:07:59;14.17;;;10.10;;
18013;SDS011;9132;47.946;10.394;2022-12-07T03:10:27;15.47;;;11.03;;
18013;SDS011;9132;47.946;10.394;2022-12-07T03:13:01;16.70;;;10.40;;
18013;SDS011;9132;47.946;10.394;2022-12-07T03:15:29;15.70;;;9.53;;
18013;SDS011;9132;47.946;10.394;2022-12-07T03:17:58;13.90;;;9.50;;
18013;SDS011;9132;47.946;10.394;2022-12-07T03:20:25;16.70;;;10.00;;
18013;SDS011;9132;47.946;10.394;2022-12-07T03:22:53;16.10;;;10.63;;
18013;SDS011;9132;47.946;10.394;2022-12-07T03:25:20;16.87;;;11.03;;
18013;SDS011;9132;47.946;10.394;2022-12-07T03:27:48;14.37;;;9.87;;
18013;SDS011;9132;47.946;10.394;2022-12-07T03:30:17;16.97;;;10.67;;
18013;SDS011;9132;47.946;10.394;2022-12-07T03:32:45;16.57;;;10.83;;
18013;SDS011;9132;47.946;10.394;2022-12-07T03:35:16;15.10;;;9.93;;
18013;SDS011;9132;47.946;10.394;2022-12-07T03:37:45;14.07;;;9.87;;
18013;SDS011;9132;47.946;10.394;2022-12-07T03:40:14;14.87;;;10.70;;
18013;SDS011;9132;47.946;10.394;2022-12-07T03:42:42;15.40;;;10.80;;
18013;SDS011;9132;47.946;10.394;2022-12-07T03:45:09;14.10;;;9.77;;
18013;SDS011;9132;47.946;10.394;2022-12-07T03:47:37;15.93;;;10.93;;
18013;SDS011;9132;47.946;10.394;2022-12-07T03:50:07;15.60;;;10.57;;
18013;SDS011;9132;47.946;10.394;2022-12-07T03:52:35;14.67;;;10.43;;
18013;SDS011;9132;47.946;10.394;2022-12-07T03:55:05;13.30;;;10.43;;
18013;SDS011;9132;47.946;10.394;2022-12-07T03:57:34;14.93;;;9.67;;
18013;SDS011;9132;47.946;10.394;2022-12-07T04:00:01;13.97;;;9.73;;
18013;SDS011;9132;47.946;10.394;2022-12-07T04:02:29;13.30;;;10.00;;
18013;SDS011;9132;47.946;10.394;2022-12-07T04:04:55;12.87;;;9.60;;
18013;SDS011;9132;47.946;10.394;2022-12-07T04:07:22;13.10;;;9.07;;
18013;SDS011;9132;47.946;10.394;2022-12-07T04:09:48;12.87;;;9.40;;
18013;SDS011;9132;47.946;10.394;2022-12-07T04:12:14;13.97;;;9.80;;
18013;SDS011;9132;47.946;10.394;2022-12-07T04:14:42;12.17;;;9.10;;
18013;SDS011;9132;47.946;10.394;2022-12-07T04:17:08;14.40;;;9.93;;
18013;SDS011;9132;47.946;10.394;2022-12-07T04:19:35;14.57;;;9.90;;
18013;SDS011;9132;47.946;10.394;2022-12-07T04:22:02;13.00;;;9.23;;
18013;SDS011;9132;47.946;10.394;2022-12-07T04:24:28;18.73;;;11.17;;
18013;SDS011;9132;47.946;10.394;2022-12-07T04:26:55;16.70;;;10.70;;
18013;SDS011;9132;47.946;10.394;2022-12-07T04:29:21;15.77;;;10.37;;
18013;SDS011;9132;47.946;10.394;2022-12-07T04:31:49;16.47;;;10.97;;
18013;SDS011;9132;47.946;10.394;2022-12-07T04:34:16;14.83;;;10.80;;
18013;SDS011;9132;47.946;10.394;2022-12-07T04:36:43;16.07;;;11.63;;
18013;SDS011;9132;47.946;10.394;2022-12-07T04:39:13;17.33;;;11.07;;
18013;SDS011;9132;47.946;10.394;2022-12-07T04:41:43;15.93;;;11.47;;
18013;SDS011;9132;47.946;10.394;2022-12-07T04:44:09;15.90;;;11.27;;
18013;SDS011;9132;47.946;10.394;2022-12-07T04:46:35;15.93;;;11.17;;
18013;SDS011;9132;47.946;10.394;2022-12-07T04:49:03;17.43;;;11.30;;
18013;SDS011;9132;47.946;10.394;2022-12-07T04:51:29;16.80;;;12.83;;
18013;SDS011;9132;47.946;10.394;2022-12-07T04:54:02;15.57;;;11.87;;
18013;SDS011;9132;47.946;10.394;2022-12-07T04:56:28;21.53;;;14.83;;
18013;SDS011;9132;47.946;10.394;2022-12-07T04:58:55;23.43;;;16.07;;
18013;SDS011;9132;47.946;10.394;2022-12-07T05:01:21;24.07;;;15.83;;
18013;SDS011;9132;47.946;10.394;2022-12-07T05:03:48;19.93;;;14.13;;
18013;SDS011;9132;47.946;10.394;2022-12-07T05:06:16;17.80;;;12.53;;
18013;SDS011;9132;47.946;10.394;2022-12-07T05:08:42;18.03;;;11.87;;
18013;SDS011;9132;47.946;10.394;2022-12-07T05:11:09;17.77;;;12.30;;
18013;SDS011;9132;47.946;10.394;2022-12-07T05:13:56;15.97;;;12.13;;
18013;SDS011;9132;47.946;10.394;2022-12-07T05:16:23;15.73;;;11.60;;
18013;SDS011;9132;47.946;10.394;2022-12-07T05:18:49;15.60;;;11.63;;
18013;SDS011;9132;47.946;10.394;2022-12-07T05:21:17;15.97;;;12.33;;
18013;SDS011;9132;47.946;10.394;2022-12-07T05:23:43;16.63;;;11.67;;
18013;SDS011;9132;47.946;10.394;2022-12-07T05:26:10;16.07;;;12.63;;
18013;SDS011;9132;47.946;10.394;2022-12-07T05:28:36;16.07;;;12.70;;
18013;SDS011;9132;47.946;10.394;2022-12-07T05:31:02;17.27;;;12.23;;
18013;SDS011;9132;47.946;10.394;2022-12-07T05:33:29;16.00;;;11.47;;
18013;SDS011;9132;47.946;10.394;2022-12-07T05:35:55;17.07;;;12.33;;
18013;SDS011;9132;47.946;10.394;2022-12-07T05:38:23;16.87;;;12.07;;
18013;SDS011;9132;47.946;10.394;2022-12-07T05:40:49;15.30;;;11.73;;
18013;SDS011;9132;47.946;10.394;2022-12-07T05:43:16;17.20;;;11.77;;
18013;SDS011;9132;47.946;10.394;2022-12-07T05:45:42;16.10;;;12.03;;
18013;SDS011;9132;47.946;10.394;2022-12-07T05:48:08;14.63;;;11.87;;
18013;SDS011;9132;47.946;10.394;2022-12-07T05:50:35;15.20;;;11.73;;
18013;SDS011;9132;47.946;10.394;2022-12-07T05:53:01;15.90;;;14.05;;
18013;SDS011;9132;47.946;10.394;2022-12-07T05:55:29;13.83;;;11.50;;
18013;SDS011;9132;47.946;10.394;2022-12-07T05:57:55;12.93;;;10.70;;
18013;SDS011;9132;47.946;10.394;2022-12-07T06:00:39;14.20;;;11.77;;
18013;SDS011;9132;47.946;10.394;2022-12-07T06:03:05;14.87;;;11.07;;
18013;SDS011;9132;47.946;10.394;2022-12-07T06:05:31;13.33;;;10.83;;
18013;SDS011;9132;47.946;10.394;2022-12-07T06:07:58;15.60;;;11.97;;
18013;SDS011;9132;47.946;10.394;2022-12-07T06:10:24;14.57;;;11.70;;
18013;SDS011;9132;47.946;10.394;2022-12-07T06:12:52;13.57;;;10.70;;
18013;SDS011;9132;47.946;10.394;2022-12-07T06:15:17;12.83;;;9.80;;
18013;SDS011;9132;47.946;10.394;2022-12-07T06:17:44;15.70;;;14.05;;
18013;SDS011;9132;47.946;10.394;2022-12-07T06:20:10;15.40;;;11.37;;
18013;SDS011;9132;47.946;10.394;2022-12-07T06:22:37;12.43;;;9.97;;
18013;SDS011;9132;47.946;10.394;2022-12-07T06:25:03;14.20;;;10.67;;
18013;SDS011;9132;47.946;10.394;2022-12-07T06:27:30;16.40;;;12.52;;
18013;SDS011;9132;47.946;10.394;2022-12-07T06:29:59;15.00;;;11.47;;
18013;SDS011;9132;47.946;10.394;2022-12-07T06:32:31;16.55;;;13.82;;
18013;SDS011;9132;47.946;10.394;2022-12-07T06:34:57;13.80;;;11.03;;
18013;SDS011;9132;47.946;10.394;2022-12-07T06:37:24;16.20;;;11.33;;
18013;SDS011;9132;47.946;10.394;2022-12-07T06:39:50;13.33;;;10.57;;
18013;SDS011;9132;47.946;10.394;2022-12-07T06:42:16;14.33;;;10.90;;
18013;SDS011;9132;47.946;10.394;2022-12-07T06:44:43;15.13;;;10.57;;
18013;SDS011;9132;47.946;10.394;2022-12-07T06:47:10;15.83;;;11.27;;
18013;SDS011;9132;47.946;10.394;2022-12-07T06:49:37;17.23;;;11.37;;
18013;SDS011;9132;47.946;10.394;2022-12-07T06:52:03;15.20;;;11.53;;
18013;SDS011;9132;47.946;10.394;2022-12-07T06:54:30;14.90;;;10.93;;
18013;SDS011;9132;47.946;10.394;2022-12-07T06:56:57;15.27;;;11.73;;
18013;SDS011;9132;47.946;10.394;2022-12-07T06:59:23;18.07;;;12.73;;
18013;SDS011;9132;47.946;10.394;2022-12-07T07:01:49;21.10;;;14.43;;
18013;SDS011;9132;47.946;10.394;2022-12-07T07:04:17;43.83;;;26.43;;
18013;SDS011;9132;47.946;10.394;2022-12-07T07:06:43;41.40;;;26.17;;
18013;SDS011;9132;47.946;10.394;2022-12-07T07:09:10;33.40;;;21.70;;
18013;SDS011;9132;47.946;10.394;2022-12-07T07:11:36;26.20;;;17.80;;
18013;SDS011;9132;47.946;10.394;2022-12-07T07:14:03;20.80;;;14.77;;
18013;SDS011;9132;47.946;10.394;2022-12-07T07:16:29;19.20;;;13.93;;
18013;SDS011;9132;47.946;10.394;2022-12-07T07:18:56;17.13;;;13.60;;
18013;SDS011;9132;47.946;10.394;2022-12-07T07:21:24;20.03;;;13.73;;
18013;SDS011;9132;47.946;10.394;2022-12-07T07:23:50;20.07;;;13.30;;
18013;SDS011;9132;47.946;10.394;2022-12-07T07:26:17;22.23;;;17.30;;
18013;SDS011;9132;47.946;10.394;2022-12-07T07:28:43;17.50;;;13.37;;
18013;SDS011;9132;47.946;10.394;2022-12-07T07:31:09;15.67;;;12.13;;
18013;SDS011;9132;47.946;10.394;2022-12-07T07:33:36;18.67;;;13.60;;
18013;SDS011;9132;47.946;10.394;2022-12-07T07:36:02;14.63;;;10.60;;
18013;SDS011;9132;47.946;10.394;2022-12-07T07:38:30;15.53;;;11.10;;
18013;SDS011;9132;47.946;10.394;2022-12-07T07:40:56;17.13;;;11.77;;
18013;SDS011;9132;47.946;10.394;2022-12-07T07:43:22;16.47;;;11.60;;
18013;SDS011;9132;47.946;10.394;2022-12-07T07:45:49;15.27;;;10.83;;
18013;SDS011;9132;47.946;10.394;2022-12-07T07:48:15;16.13;;;10.43;;
18013;SDS011;9132;47.946;10.394;2022-12-07T07:50:42;15.87;;;11.37;;
18013;SDS011;9132;47.946;10.394;2022-12-07T07:53:08;16.57;;;11.70;;
18013;SDS011;9132;47.946;10.394;2022-12-07T07:55:36;15.37;;;10.80;;
18013;SDS011;9132;47.946;10.394;2022-12-07T07:58:02;14.80;;;11.63;;
18013;SDS011;9132;47.946;10.394;2022-12-07T08:00:28;17.27;;;11.83;;
18013;SDS011;9132;47.946;10.394;2022-12-07T08:02:55;15.60;;;11.40;;
18013;SDS011;9132;47.946;10.394;2022-12-07T08:05:21;15.23;;;11.17;;
18013;SDS011;9132;47.946;10.394;2022-12-07T08:07:47;16.07;;;11.27;;
18013;SDS011;9132;47.946;10.394;2022-12-07T08:10:14;16.60;;;11.27;;
18013;SDS011;9132;47.946;10.394;2022-12-07T08:12:42;16.27;;;10.87;;
18013;SDS011;9132;47.946;10.394;2022-12-07T08:15:23;14.60;;;11.17;;
18013;SDS011;9132;47.946;10.394;2022-12-07T08:17:49;16.27;;;10.50;;
18013;SDS011;9132;47.946;10.394;2022-12-07T08:20:15;16.67;;;12.10;;
18013;SDS011;9132;47.946;10.394;2022-12-07T08:22:42;16.83;;;12.10;;
18013;SDS011;9132;47.946;10.394;2022-12-07T08:25:08;18.47;;;12.80;;
18013;SDS011;9132;47.946;10.394;2022-12-07T08:27:34;18.97;;;11.37;;
18013;SDS011;9132;47.946;10.394;2022-12-07T08:30:02;16.17;;;11.17;;
18013;SDS011;9132;47.946;10.394;2022-12-07T08:32:29;16.97;;;11.43;;
18013;SDS011;9132;47.946;10.394;2022-12-07T08:34:55;15.93;;;11.80;;
18013;SDS011;9132;47.946;10.394;2022-12-07T08:37:21;19.17;;;12.27;;
18013;SDS011;9132;47.946;10.394;2022-12-07T08:39:48;19.80;;;13.13;;
18013;SDS011;9132;47.946;10.394;2022-12-07T08:42:14;23.27;;;14.63;;
18013;SDS011;9132;47.946;10.394;2022-12-07T08:44:40;20.70;;;13.60;;
18013;SDS011;9132;47.946;10.394;2022-12-07T08:47:08;26.30;;;17.37;;
18013;SDS011;9132;47.946;10.394;2022-12-07T08:49:36;25.50;;;15.77;;
18013;SDS011;9132;47.946;10.394;2022-12-07T08:52:04;20.93;;;13.47;;
18013;SDS011;9132;47.946;10.394;2022-12-07T08:54:30;19.27;;;13.17;;
18013;SDS011;9132;47.946;10.394;2022-12-07T08:56:57;19.17;;;13.30;;
18013;SDS011;9132;47.946;10.394;2022-12-07T08:59:23;18.20;;;13.03;;
18013;SDS011;9132;47.946;10.394;2022-12-07T09:01:49;19.47;;;13.43;;
18013;SDS011;9132;47.946;10.394;2022-12-07T09:04:17;19.37;;;12.70;;
18013;SDS011;9132;47.946;10.394;2022-12-07T09:06:43;18.33;;;13.67;;
18013;SDS011;9132;47.946;10.394;2022-12-07T09:09:10;18.03;;;12.67;;
18013;SDS011;9132;47.946;10.394;2022-12-07T09:11:37;18.60;;;12.67;;
18013;SDS011;9132;47.946;10.394;2022-12-07T09:14:04;16.73;;;11.87;;
18013;SDS011;9132;47.946;10.394;2022-12-07T09:16:30;21.00;;;13.57;;
18013;SDS011;9132;47.946;10.394;2022-12-07T09:18:56;18.47;;;12.47;;
18013;SDS011;9132;47.946;10.394;2022-12-07T09:21:24;19.63;;;13.40;;
18013;SDS011;9132;47.946;10.394;2022-12-07T09:23:50;18.93;;;12.53;;
18013;SDS011;9132;47.946;10.394;2022-12-07T09:26:17;20.77;;;13.13;;
18013;SDS011;9132;47.946;10.394;2022-12-07T09:28:43;18.60;;;12.83;;
18013;SDS011;9132;47.946;10.394;2022-12-07T09:31:09;19.00;;;13.30;;
18013;SDS011;9132;47.946;10.394;2022-12-07T09:33:36;19.80;;;13.17;;
18013;SDS011;9132;47.946;10.394;2022-12-07T09:36:04;19.40;;;12.93;;
18013;SDS011;9132;47.946;10.394;2022-12-07T09:38:32;19.23;;;13.03;;
18013;SDS011;9132;47.946;10.394;2022-12-07T09:41:03;19.90;;;13.30;;
18013;SDS011;9132;47.946;10.394;2022-12-07T09:43:29;18.03;;;12.70;;
18013;SDS011;9132;47.946;10.394;2022-12-07T09:45:56;16.87;;;12.43;;
18013;SDS011;9132;47.946;10.394;2022-12-07T09:48:23;16.23;;;11.87;;
18013;SDS011;9132;47.946;10.394;2022-12-07T09:50:51;16.30;;;11.70;;
18013;SDS011;9132;47.946;10.394;2022-12-07T09:53:20;17.10;;;12.10;;
18013;SDS011;9132;47.946;10.394;2022-12-07T09:55:50;14.40;;;10.93;;
18013;SDS011;9132;47.946;10.394;2022-12-07T09:58:17;16.37;;;12.07;;
18013;SDS011;9132;47.946;10.394;2022-12-07T10:00:45;17.58;;;15.25;;
18013;SDS011;9132;47.946;10.394;2022-12-07T10:03:11;16.27;;;11.63;;
18013;SDS011;9132;47.946;10.394;2022-12-07T10:05:38;18.00;;;12.37;;
18013;SDS011;9132;47.946;10.394;2022-12-07T10:08:07;17.03;;;12.60;;
18013;SDS011;9132;47.946;10.394;2022-12-07T10:10:34;16.20;;;14.23;;
18013;SDS011;9132;47.946;10.394;2022-12-07T10:13:05;16.47;;;12.50;;
18013;SDS011;9132;47.946;10.394;2022-12-07T10:15:48;15.13;;;11.73;;
18013;SDS011;9132;47.946;10.394;2022-12-07T10:18:16;17.90;;;12.73;;
18013;SDS011;9132;47.946;10.394;2022-12-07T10:20:43;15.97;;;11.63;;
18013;SDS011;9132;47.946;10.394;2022-12-07T10:23:13;15.03;;;10.53;;
18013;SDS011;9132;47.946;10.394;2022-12-07T10:25:40;13.93;;;11.00;;
18013;SDS011;9132;47.946;10.394;2022-12-07T10:28:13;17.23;;;12.27;;
18013;SDS011;9132;47.946;10.394;2022-12-07T10:30:47;15.67;;;11.47;;
18013;SDS011;9132;47.946;10.394;2022-12-07T10:33:19;25.23;;;15.30;;
18013;SDS011;9132;47.946;10.394;2022-12-07T10:35:53;17.25;;;14.50;;
18013;SDS011;9132;47.946;10.394;2022-12-07T10:38:19;15.23;;;11.43;;
18013;SDS011;9132;47.946;10.394;2022-12-07T10:40:46;12.93;;;10.87;;
18013;SDS011;9132;47.946;10.394;2022-12-07T10:43:17;15.83;;;14.23;;
18013;SDS011;9132;47.946;10.394;2022-12-07T10:45:54;15.40;;;11.60;;
18013;SDS011;9132;47.946;10.394;2022-12-07T10:48:24;13.90;;;10.87;;
18013;SDS011;9132;47.946;10.394;2022-12-07T10:51:02;12.00;;;9.57;;
18013;SDS011;9132;47.946;10.394;2022-12-07T10:53:41;12.83;;;9.40;;
18013;SDS011;9132;47.946;10.394;2022-12-07T10:56:18;12.53;;;9.90;;
18013;SDS011;9132;47.946;10.394;2022-12-07T10:58:52;12.60;;;10.33;;
18013;SDS011;9132;47.946;10.394;2022-12-07T11:01:23;13.63;;;10.53;;
18013;SDS011;9132;47.946;10.394;2022-12-07T11:03:55;11.77;;;9.70;;
18013;SDS011;9132;47.946;10.394;2022-12-07T11:06:27;10.97;;;8.77;;
18013;SDS011;9132;47.946;10.394;2022-12-07T11:11:38;10.73;;;8.80;;
18013;SDS011;9132;47.946;10.394;2022-12-07T11:14:12;10.87;;;7.70;;
18013;SDS011;9132;47.946;10.394;2022-12-07T11:16:48;12.13;;;9.40;;
18013;SDS011;9132;47.946;10.394;2022-12-07T11:19:22;11.20;;;8.50;;
18013;SDS011;9132;47.946;10.394;2022-12-07T11:21:54;9.83;;;7.90;;
18013;SDS011;9132;47.946;10.394;2022-12-07T11:24:23;10.40;;;8.03;;
18013;SDS011;9132;47.946;10.394;2022-12-07T11:26:56;11.47;;;8.60;;
18013;SDS011;9132;47.946;10.394;2022-12-07T11:29:32;14.07;;;10.03;;
18013;SDS011;9132;47.946;10.394;2022-12-07T11:32:04;11.87;;;8.27;;
18013;SDS011;9132;47.946;10.394;2022-12-07T11:34:36;8.10;;;6.37;;
18013;SDS011;9132;47.946;10.394;2022-12-07T11:37:06;6.53;;;5.57;;
18013;SDS011;9132;47.946;10.394;2022-12-07T11:39:39;8.33;;;6.40;;
18013;SDS011;9132;47.946;10.394;2022-12-07T11:42:09;8.13;;;6.50;;
18013;SDS011;9132;47.946;10.394;2022-12-07T11:44:44;10.63;;;7.90;;
18013;SDS011;9132;47.946;10.394;2022-12-07T11:47:14;8.17;;;6.30;;
18013;SDS011;9132;47.946;10.394;2022-12-07T11:49:43;7.47;;;6.33;;
18013;SDS011;9132;47.946;10.394;2022-12-07T11:52:13;7.40;;;6.70;;
18013;SDS011;9132;47.946;10.394;2022-12-07T11:54:41;8.63;;;6.77;;
18013;SDS011;9132;47.946;10.394;2022-12-07T11:57:10;11.00;;;7.90;;
18013;SDS011;9132;47.946;10.394;2022-12-07T11:59:41;8.20;;;6.33;;
18013;SDS011;9132;47.946;10.394;2022-12-07T12:02:11;7.87;;;6.27;;
18013;SDS011;9132;47.946;10.394;2022-12-07T12:04:43;7.77;;;6.50;;
18013;SDS011;9132;47.946;10.394;2022-12-07T12:07:14;8.67;;;6.30;;
18013;SDS011;9132;47.946;10.394;2022-12-07T12:09:43;7.27;;;5.83;;
18013;SDS011;9132;47.946;10.394;2022-12-07T12:14:59;7.13;;;5.97;;
18013;SDS011;9132;47.946;10.394;2022-12-07T12:17:40;8.57;;;6.47;;
18013;SDS011;9132;47.946;10.394;2022-12-07T12:20:15;9.47;;;6.27;;
18013;SDS011;9132;47.946;10.394;2022-12-07T12:22:43;7.75;;;7.05;;
18013;SDS011;9132;47.946;10.394;2022-12-07T12:25:13;11.60;;;8.30;;
18013;SDS011;9132;47.946;10.394;2022-12-07T12:27:41;6.90;;;6.10;;
18013;SDS011;9132;47.946;10.394;2022-12-07T12:30:25;7.10;;;5.27;;
18013;SDS011;9132;47.946;10.394;2022-12-07T12:32:52;6.63;;;5.13;;
18013;SDS011;9132;47.946;10.394;2022-12-07T12:35:26;6.87;;;5.43;;
18013;SDS011;9132;47.946;10.394;2022-12-07T12:37:53;6.87;;;6.07;;
18013;SDS011;9132;47.946;10.394;2022-12-07T12:43:27;8.47;;;6.57;;
18013;SDS011;9132;47.946;10.394;2022-12-07T12:45:57;9.77;;;8.77;;
18013;SDS011;9132;47.946;10.394;2022-12-07T12:48:45;8.43;;;7.63;;
18013;SDS011;9132;47.946;10.394;2022-12-07T12:54:03;8.23;;;7.20;;
18013;SDS011;9132;47.946;10.394;2022-12-07T12:56:33;9.77;;;8.77;;
18013;SDS011;9132;47.946;10.394;2022-12-07T12:59:24;9.37;;;7.30;;
18013;SDS011;9132;47.946;10.394;2022-12-07T13:01:51;8.47;;;7.23;;
18013;SDS011;9132;47.946;10.394;2022-12-07T13:04:29;7.87;;;7.07;;
18013;SDS011;9132;47.946;10.394;2022-12-07T13:06:57;8.20;;;6.53;;
18013;SDS011;9132;47.946;10.394;2022-12-07T13:09:24;8.90;;;7.13;;
18013;SDS011;9132;47.946;10.394;2022-12-07T13:11:56;8.57;;;7.17;;
18013;SDS011;9132;47.946;10.394;2022-12-07T13:17:07;8.67;;;6.77;;
18013;SDS011;9132;47.946;10.394;2022-12-07T13:25:05;8.83;;;7.20;;
18013;SDS011;9132;47.946;10.394;2022-12-07T13:27:33;9.93;;;8.07;;
18013;SDS011;9132;47.946;10.394;2022-12-07T13:30:00;14.63;;;9.63;;
18013;SDS011;9132;47.946;10.394;2022-12-07T13:32:28;10.27;;;8.13;;
18013;SDS011;9132;47.946;10.394;2022-12-07T13:34:56;10.77;;;8.33;;
18013;SDS011;9132;47.946;10.394;2022-12-07T13:37:23;11.37;;;8.83;;
18013;SDS011;9132;47.946;10.394;2022-12-07T13:39:51;10.97;;;8.40;;
18013;SDS011;9132;47.946;10.394;2022-12-07T13:42:21;12.83;;;8.30;;
18013;SDS011;9132;47.946;10.394;2022-12-07T13:44:48;12.57;;;8.63;;
18013;SDS011;9132;47.946;10.394;2022-12-07T13:47:15;12.27;;;9.20;;
18013;SDS011;9132;47.946;10.394;2022-12-07T13:49:46;11.10;;;9.27;;
18013;SDS011;9132;47.946;10.394;2022-12-07T13:52:14;10.87;;;8.77;;
18013;SDS011;9132;47.946;10.394;2022-12-07T13:54:45;11.40;;;8.80;;
18013;SDS011;9132;47.946;10.394;2022-12-07T13:57:12;12.13;;;9.27;;
18013;SDS011;9132;47.946;10.394;2022-12-07T13:59:40;11.20;;;9.37;;
18013;SDS011;9132;47.946;10.394;2022-12-07T14:02:16;12.67;;;8.93;;
18013;SDS011;9132;47.946;10.394;2022-12-07T14:04:45;13.57;;;8.67;;
18013;SDS011;9132;47.946;10.394;2022-12-07T14:07:21;10.73;;;8.53;;
18013;SDS011;9132;47.946;10.394;2022-12-07T14:09:54;11.97;;;9.20;;
18013;SDS011;9132;47.946;10.394;2022-12-07T14:12:21;12.60;;;9.70;;
18013;SDS011;9132;47.946;10.394;2022-12-07T14:14:49;11.53;;;9.27;;
18013;SDS011;9132;47.946;10.394;2022-12-07T14:17:17;12.90;;;9.73;;
18013;SDS011;9132;47.946;10.394;2022-12-07T14:19:45;12.20;;;9.37;;
18013;SDS011;9132;47.946;10.394;2022-12-07T14:22:22;12.70;;;9.77;;
18013;SDS011;9132;47.946;10.394;2022-12-07T14:24:49;13.37;;;9.47;;
18013;SDS011;9132;47.946;10.394;2022-12-07T14:27:19;13.00;;;10.10;;
18013;SDS011;9132;47.946;10.394;2022-12-07T14:29:46;13.77;;;9.97;;
18013;SDS011;9132;47.946;10.394;2022-12-07T14:32:21;10.43;;;8.93;;
18013;SDS011;9132;47.946;10.394;2022-12-07T14:34:53;14.33;;;9.97;;
18013;SDS011;9132;47.946;10.394;2022-12-07T14:37:19;14.00;;;9.80;;
18013;SDS011;9132;47.946;10.394;2022-12-07T14:39:46;14.43;;;11.63;;
18013;SDS011;9132;47.946;10.394;2022-12-07T14:42:12;12.43;;;9.07;;
18013;SDS011;9132;47.946;10.394;2022-12-07T14:44:38;11.70;;;9.13;;
18013;SDS011;9132;47.946;10.394;2022-12-07T14:47:05;13.38;;;11.98;;
18013;SDS011;9132;47.946;10.394;2022-12-07T14:49:33;13.83;;;11.53;;
18013;SDS011;9132;47.946;10.394;2022-12-07T14:51:59;12.07;;;10.20;;
18013;SDS011;9132;47.946;10.394;2022-12-07T14:54:25;14.37;;;11.30;;